createdAt,value
2022-09-13T00:00:44.936Z,100091.19
2022-09-13T00:04:46.485Z,100093.78
2022-09-13T00:08:48.923Z,100073.91
2022-09-13T00:12:51.052Z,100051.44
2022-09-13T00:16:52.582Z,100056.66
2022-09-13T00:21:08.213Z,100060.09
2022-09-13T00:25:09.969Z,100057.50
2022-09-13T00:29:11.535Z,100044.53
2022-09-13T00:33:12.992Z,100052.31
2022-09-13T00:37:14.582Z,100050.59
2022-09-13T00:41:19.191Z,100054.91
2022-09-13T00:45:20.835Z,100060.06
2022-09-13T00:49:27.145Z,100058.34
2022-09-13T00:53:34.114Z,100054.91
2022-09-13T00:57:36.779Z,100050.53
2022-09-13T01:01:44.856Z,100054.03
2022-09-13T01:05:52.012Z,100053.97
2022-09-13T01:09:53.865Z,100052.25
2022-09-13T01:13:57.186Z,100061.75
2022-09-13T01:17:59.165Z,100053.97
2022-09-13T01:22:36.055Z,100063.44
2022-09-13T01:27:01.669Z,100055.66
2022-09-13T01:31:28.031Z,100052.22
2022-09-13T01:35:57.159Z,100044.44
2022-09-13T01:40:05.445Z,100052.19
2022-09-13T01:44:43.593Z,100071.13
2022-09-13T01:49:00.339Z,100080.59
2022-09-13T01:53:10.014Z,100076.28
2022-09-13T01:57:38.161Z,100071.94
2022-09-13T02:01:48.360Z,100069.28
2022-09-13T02:06:12.620Z,100070.06
2022-09-13T02:10:20.685Z,100079.56
2022-09-13T02:14:27.397Z,100088.16
2022-09-13T02:18:34.784Z,100077.78
2022-09-13T02:22:48.048Z,100091.59
2022-09-13T02:26:52.783Z,100089.00
2022-09-13T02:30:56.662Z,100088.13
2022-09-13T02:35:44.490Z,100085.53
2022-09-13T02:39:53.348Z,100094.97
2022-09-13T02:44:02.610Z,100115.53
2022-09-13T02:48:12.402Z,100091.28
2022-09-13T02:52:27.773Z,100096.47
2022-09-13T02:56:39.282Z,100080.09
2022-09-13T03:00:41.491Z,100069.78
2022-09-13T03:04:42.998Z,100075.81
2022-09-13T03:08:44.540Z,100070.66
2022-09-13T03:13:24.765Z,100074.97
2022-09-13T03:17:36.864Z,100057.69
2022-09-13T03:21:53.583Z,100063.75
2022-09-13T03:26:24.792Z,100063.78
2022-09-13T03:30:26.594Z,100036.22
2022-09-13T03:34:48.712Z,100019.84
2022-09-13T03:39:15.523Z,100038.88
2022-09-13T03:43:24.512Z,100041.47
2022-09-13T03:47:28.382Z,100048.38
2022-09-13T03:51:30.416Z,100053.59
2022-09-13T03:55:33.403Z,100044.97
2022-09-13T03:59:36.596Z,100040.72
2022-09-13T04:03:38.985Z,100040.72
2022-09-13T04:07:40.554Z,100057.97
2022-09-13T04:11:42.032Z,100050.97
2022-09-13T04:15:43.577Z,100060.44
2022-09-13T04:19:47.021Z,100065.59
2022-09-13T04:23:50.277Z,100069.00
2022-09-13T04:27:59.940Z,100055.19
2022-09-13T04:32:01.564Z,100053.44
2022-09-13T04:36:03.089Z,100048.25
2022-09-13T04:40:08.296Z,100057.75
2022-09-13T04:44:09.872Z,100058.66
2022-09-13T04:48:11.370Z,100051.72
2022-09-13T04:52:12.886Z,100058.66
2022-09-13T04:56:15.452Z,100057.81
2022-09-13T05:00:17.101Z,100050.94
2022-09-13T05:04:18.669Z,100068.19
2022-09-13T05:08:20.169Z,100073.34
2022-09-13T05:12:21.720Z,100084.63
2022-09-13T05:16:25.584Z,100088.13
2022-09-13T05:20:27.089Z,100092.44
2022-09-13T05:24:28.645Z,100095.94
2022-09-13T05:28:33.187Z,100094.25
2022-09-13T05:32:34.691Z,100100.28
2022-09-13T05:36:36.830Z,100093.38
2022-09-13T05:40:38.361Z,100087.31
2022-09-13T05:44:39.912Z,100095.88
2022-09-13T05:48:42.021Z,100083.00
2022-09-13T05:52:43.599Z,100088.28
2022-09-13T05:56:45.185Z,100077.97
2022-09-13T06:00:52.884Z,100089.22
2022-09-13T06:04:54.393Z,100102.19
2022-09-13T06:08:56.794Z,100080.63
2022-09-13T06:12:58.569Z,100081.53
2022-09-13T06:17:00.173Z,100085.00
2022-09-13T06:21:08.033Z,100072.91
2022-09-13T06:25:09.712Z,100077.25
2022-09-13T06:29:11.825Z,100066.03
2022-09-13T06:33:13.363Z,100065.19
2022-09-13T06:37:14.903Z,100069.50
2022-09-13T06:41:20.319Z,100067.75
2022-09-13T06:45:21.872Z,100078.13
2022-09-13T06:49:23.382Z,100073.00
2022-09-13T06:53:24.867Z,100073.00
2022-09-13T06:57:29.780Z,100072.16
2022-09-13T07:01:39.490Z,100079.09
2022-09-13T07:05:41.189Z,100087.75
2022-09-13T07:09:43.162Z,100073.03
2022-09-13T07:13:52.674Z,100064.44
2022-09-13T07:17:54.215Z,100073.06
2022-09-13T07:21:56.431Z,100073.06
2022-09-13T07:26:02.086Z,100066.16
2022-09-13T07:30:03.984Z,100073.06
2022-09-13T07:34:13.235Z,100092.06
2022-09-13T07:38:14.714Z,100084.28
2022-09-13T07:42:16.264Z,100087.72
2022-09-13T07:46:21.168Z,100087.69
2022-09-13T07:50:22.847Z,100085.94
2022-09-13T07:54:24.427Z,100085.84
2022-09-13T07:58:26.138Z,100064.19
2022-09-13T08:02:27.807Z,100068.47
2022-09-13T08:06:31.825Z,100058.88
2022-09-13T08:10:36.120Z,100057.97
2022-09-13T08:14:37.711Z,100069.13
2022-09-13T08:18:49.474Z,100069.94
2022-09-13T08:22:51.022Z,100071.75
2022-09-13T08:26:54.898Z,100064.81
2022-09-13T08:30:56.464Z,100065.56
2022-09-13T08:34:58.003Z,100058.44
2022-09-13T08:39:00.932Z,100039.13
2022-09-13T08:43:12.078Z,100032.84
2022-09-13T08:47:32.016Z,100041.31
2022-09-13T08:51:48.280Z,100045.44
2022-09-13T08:55:58.859Z,100054.88
2022-09-13T09:00:07.222Z,100055.50
2022-09-13T09:04:11.691Z,100058.81
2022-09-13T09:08:27.808Z,100045.59
2022-09-13T09:12:45.537Z,100027.09
2022-09-13T09:17:00.739Z,100021.53
2022-09-13T09:21:04.087Z,100021.19
2022-09-13T09:25:06.439Z,100029.81
2022-09-13T09:29:25.138Z,100043.66
2022-09-13T09:33:49.996Z,100056.41
2022-09-13T09:38:19.412Z,100064.88
2022-09-13T09:42:25.515Z,100060.13
2022-09-13T09:46:32.281Z,100065.09
2022-09-13T09:50:38.888Z,100068.59
2022-09-13T09:54:41.588Z,100053.56
2022-09-13T09:58:45.393Z,100047.69
2022-09-13T10:02:48.442Z,100030.63
2022-09-13T10:06:51.408Z,100034.84
2022-09-13T10:10:55.445Z,100029.63
2022-09-13T10:15:17.241Z,100019.13
2022-09-13T10:19:26.720Z,100025.94
2022-09-13T10:23:28.321Z,100046.00
2022-09-13T10:27:36.456Z,100070.03
2022-09-13T10:31:41.578Z,100073.38
2022-09-13T10:35:48.552Z,100072.16
2022-09-13T10:39:50.085Z,100060.59
2022-09-13T10:44:07.787Z,100052.53
2022-09-13T10:48:16.022Z,100043.63
2022-09-13T10:52:25.008Z,100032.16
2022-09-13T10:56:26.790Z,100038.31
2022-09-13T11:01:07.318Z,100028.72
2022-09-13T11:05:22.392Z,100032.16
2022-09-13T11:09:47.984Z,100019.41
2022-09-13T11:14:10.804Z,100026.94
2022-09-13T11:18:15.512Z,100023.53
2022-09-13T11:22:27.129Z,100033.69
2022-09-13T11:26:34.990Z,100025.53
2022-09-13T11:30:49.596Z,100020.06
2022-09-13T11:35:26.984Z,100026.56
2022-09-13T11:39:28.624Z,100021.75
2022-09-13T11:43:30.066Z,100003.66
2022-09-13T11:47:50.392Z,99999.44
2022-09-13T11:52:16.723Z,99992.09
2022-09-13T11:56:26.435Z,99982.66
2022-09-13T12:00:47.053Z,99969.75
2022-09-13T12:05:20.464Z,99966.88
2022-09-13T12:09:23.591Z,99950.50
2022-09-13T12:13:29.142Z,99932.56
2022-09-13T12:18:03.932Z,99941.88
2022-09-13T12:22:07.056Z,99945.91
2022-09-13T12:26:50.895Z,99938.13
2022-09-13T12:30:58.524Z,99939.47
2022-09-13T12:35:07.885Z,99926.28
2022-09-13T12:39:43.747Z,99910.22
2022-09-13T12:44:06.638Z,99914.63
2022-09-13T12:48:11.292Z,99913.00
2022-09-13T12:52:22.591Z,99908.75
2022-09-13T12:57:01.073Z,99901.66
2022-09-13T13:01:18.194Z,99894.84
2022-09-13T13:05:34.358Z,99900.72
2022-09-13T13:09:47.612Z,99892.41
2022-09-13T13:13:56.983Z,99879.31
2022-09-13T13:18:22.374Z,99892.91
2022-09-13T13:22:42.401Z,99874.59
2022-09-13T13:26:48.401Z,99868.00
2022-09-13T13:30:55.092Z,99875.06
2022-09-13T13:35:28.859Z,99868.97
2022-09-13T13:39:30.369Z,99870.66
2022-09-13T13:43:33.925Z,99871.63
2022-09-13T13:47:35.434Z,99868.19
2022-09-13T13:51:36.996Z,99859.88
2022-09-13T13:55:46.998Z,99845.03
2022-09-13T13:59:51.756Z,99849.03
2022-09-13T14:03:59.318Z,99837.03
2022-09-13T14:08:31.457Z,99835.16
2022-09-13T14:12:49.156Z,99829.84
2022-09-13T14:17:15.683Z,99826.19
2022-09-13T14:21:26.669Z,99820.94
2022-09-13T14:25:28.482Z,99817.56
2022-09-13T14:29:30.360Z,99816.78
2022-09-13T14:33:37.824Z,99806.69
2022-09-13T14:37:40.322Z,99811.47
2022-09-13T14:41:41.841Z,99796.53
2022-09-13T14:45:47.529Z,99789.78
2022-09-13T14:50:00.343Z,99789.66
2022-09-13T14:54:11.405Z,99787.22
2022-09-13T14:58:19.740Z,99778.69
2022-09-13T15:02:25.815Z,99768.47
2022-09-13T15:06:30.533Z,99762.41
2022-09-13T15:10:34.161Z,99745.25
2022-09-13T15:14:39.639Z,99749.00
2022-09-13T15:18:41.169Z,99737.88
2022-09-13T15:22:42.731Z,99753.53
2022-09-13T15:26:44.606Z,99744.47
2022-09-13T15:30:46.264Z,99724.19
2022-09-13T15:34:51.574Z,99728.28
2022-09-13T15:39:08.159Z,99713.34
2022-09-13T15:43:09.688Z,99709.06
2022-09-13T15:47:19.546Z,99695.09
2022-09-13T15:51:22.974Z,99698.56
2022-09-13T15:55:25.478Z,99699.53
2022-09-13T15:59:27.119Z,99703.38
2022-09-13T16:03:29.078Z,99704.78
2022-09-13T16:07:30.631Z,99699.31
2022-09-13T16:11:32.095Z,99702.56
2022-09-13T16:15:33.614Z,99699.84
2022-09-13T16:19:36.535Z,99698.63
2022-09-13T16:23:38.116Z,99697.28
2022-09-13T16:27:41.110Z,99691.72
2022-09-13T16:31:42.708Z,99706.06
2022-09-13T16:35:44.297Z,99703.97
2022-09-13T16:39:46.080Z,99701.84
2022-09-13T16:43:47.720Z,99704.63
2022-09-13T16:47:50.116Z,99697.03
2022-09-13T16:51:51.907Z,99701.56
2022-09-13T16:55:53.484Z,99706.81
2022-09-13T16:59:58.333Z,99713.94
2022-09-13T17:04:00.070Z,99718.69
2022-09-13T17:08:01.807Z,99718.09
2022-09-13T17:12:03.810Z,99710.69
2022-09-13T17:16:07.158Z,99718.13
2022-09-13T17:20:12.258Z,99716.53
2022-09-13T17:24:13.990Z,99718.38
2022-09-13T17:28:17.007Z,99719.38
2022-09-13T17:32:18.534Z,99723.06
2022-09-13T17:36:20.582Z,99716.28
2022-09-13T17:40:22.145Z,99706.88
2022-09-13T17:44:23.800Z,99707.09
2022-09-13T17:48:25.320Z,99709.84
2022-09-13T17:52:26.882Z,99696.06
2022-09-13T17:56:37.417Z,99703.31
2022-09-13T18:00:39.128Z,99690.50
2022-09-13T18:04:41.235Z,99686.34
2022-09-13T18:08:42.980Z,99690.91
2022-09-13T18:12:44.639Z,99704.16
2022-09-13T18:16:49.168Z,99717.34
2022-09-13T18:20:50.820Z,99716.59
2022-09-13T18:24:52.317Z,99715.00
2022-09-13T18:29:02.696Z,99736.16
2022-09-13T18:33:04.259Z,99742.50
2022-09-13T18:37:05.877Z,99745.28
2022-09-13T18:41:16.359Z,99737.69
2022-09-13T18:45:17.845Z,99735.34
2022-09-13T18:49:20.064Z,99725.78
2022-09-13T18:53:31.856Z,99736.16
2022-09-13T18:57:36.101Z,99735.94
2022-09-13T19:01:42.555Z,99735.03
2022-09-13T19:05:44.169Z,99736.94
2022-09-13T19:09:45.649Z,99725.88
2022-09-13T19:13:47.480Z,99727.56
2022-09-13T19:17:49.018Z,99719.81
2022-09-13T19:21:50.538Z,99724.19
2022-09-13T19:25:52.224Z,99732.84
2022-09-13T19:29:54.079Z,99729.47
2022-09-13T19:33:56.741Z,99742.75
2022-09-13T19:37:58.255Z,99737.69
2022-09-13T19:42:00.503Z,99734.28
2022-09-13T19:46:05.021Z,99735.19
2022-09-13T19:50:07.387Z,99735.19
2022-09-13T19:54:12.003Z,99736.03
2022-09-13T19:58:14.921Z,99753.44
2022-09-13T20:02:16.512Z,99755.91
2022-09-13T20:06:18.417Z,99747.38
2022-09-13T20:10:19.922Z,99755.34
2022-09-13T20:14:22.307Z,99758.00
2022-09-13T20:18:23.997Z,99753.84
2022-09-13T20:22:25.537Z,99744.66
2022-09-13T20:26:27.651Z,99745.81
2022-09-13T20:30:29.230Z,99736.41
2022-09-13T20:34:31.116Z,99731.16
2022-09-13T20:38:32.946Z,99734.56
2022-09-13T20:42:34.487Z,99746.59
2022-09-13T20:46:37.587Z,99744.91
2022-09-13T20:50:39.417Z,99741.41
2022-09-13T20:54:40.918Z,99716.25
2022-09-13T20:58:44.042Z,99723.16
2022-09-13T21:02:46.376Z,99731.03
2022-09-13T21:07:08.898Z,99730.19
2022-09-13T21:11:14.932Z,99727.63
2022-09-13T21:15:16.532Z,99716.38
2022-09-13T21:19:18.490Z,99715.50
2022-09-13T21:23:20.006Z,99712.94
2022-09-13T21:27:21.494Z,99710.34
2022-09-13T21:31:25.798Z,99696.53
2022-09-13T21:35:27.351Z,99694.81
2022-09-13T21:39:29.927Z,99690.47
2022-09-13T21:43:31.739Z,99698.28
2022-09-13T21:47:33.228Z,99686.03
2022-09-13T21:51:37.635Z,99675.66
2022-09-13T21:55:39.737Z,99675.81
2022-09-13T21:59:41.277Z,99666.25
2022-09-13T22:03:44.353Z,99667.16
2022-09-13T22:07:45.861Z,99663.59
2022-09-13T22:11:49.353Z,99646.22
2022-09-13T22:15:50.927Z,99647.84
2022-09-13T22:19:52.422Z,99642.66
2022-09-13T22:23:54.259Z,99636.56
2022-09-13T22:27:55.968Z,99632.28
2022-09-13T22:31:57.582Z,99633.19
2022-09-13T22:36:03.901Z,99622.78
2022-09-13T22:40:05.917Z,99614.91
2022-09-13T22:44:07.790Z,99615.78
2022-09-13T22:48:12.382Z,99606.19
2022-09-13T22:52:14.105Z,99594.94
2022-09-13T22:56:22.282Z,99604.50
2022-09-13T23:00:23.833Z,99602.00
2022-09-13T23:04:25.321Z,99599.78
2022-09-13T23:08:27.352Z,99607.75
2022-09-13T23:12:29.538Z,99604.25
2022-09-13T23:16:40.533Z,99584.53
2022-09-13T23:20:43.170Z,99582.16
2022-09-13T23:24:44.654Z,99597.03
2022-09-13T23:28:51.213Z,99599.69
2022-09-13T23:32:53.385Z,99605.72
2022-09-13T23:36:55.106Z,99610.88
2022-09-13T23:40:57.292Z,99615.25
2022-09-13T23:44:58.765Z,99631.63
2022-09-13T23:49:00.406Z,99662.91
2022-09-13T23:53:01.974Z,99696.84
2022-09-13T23:57:03.629Z,99699.66
